MSC295 HEGN-HECA
Flight info
| Callsign | MSC295 |
|---|---|
| Flight time | 0h 44m |
| Altitude | 32000 |
| Route | HGD V603 GIDID T91 EMOVA L677 CVO |
| Aircraft | A320/M-SDE3FGHIRWY/LB1 |
Departure
| Time | 2026-05-06 11:04 |
|---|---|
| Airport | Hurghada International Airport (HEGN) |
Arrival
| Time | 2026-05-06 11:48 |
|---|---|
| Airport | Cairo International Airport (HECA) |
| Time | Latitude | Longitude | Altitude | Speed | Heading |
|---|---|---|---|---|---|
| 2026-05-06 10:37 | 27.18802 | 33.80267 | 58 ft | 0 kts | 75° |
| 2026-05-06 10:50 | 27.18801 | 33.80267 | 58 ft | 0 kts | 75° |
| 2026-05-06 10:52 | 27.18799 | 33.80256 | 58 ft | 4 kts | 76° |
| 2026-05-06 10:53 | 27.18793 | 33.80227 | 53 ft | 4 kts | 81° |
| 2026-05-06 10:53 | 27.18790 | 33.80197 | 54 ft | 4 kts | 90° |
| 2026-05-06 10:53 | 27.18794 | 33.80168 | 53 ft | 4 kts | 127° |
| 2026-05-06 10:53 | 27.18805 | 33.80158 | 50 ft | 1 kts | 165° |
| 2026-05-06 10:54 | 27.18807 | 33.80157 | 50 ft | 1 kts | 165° |
| 2026-05-06 10:55 | 27.18785 | 33.80164 | 56 ft | 6 kts | 165° |
| 2026-05-06 10:56 | 27.18725 | 33.80181 | 54 ft | 10 kts | 165° |
| 2026-05-06 10:56 | 27.18646 | 33.80205 | 54 ft | 12 kts | 165° |
| 2026-05-06 10:56 | 27.18580 | 33.80189 | 52 ft | 12 kts | 245° |
| 2026-05-06 10:56 | 27.18545 | 33.80085 | 50 ft | 17 kts | 223° |
| 2026-05-06 10:57 | 27.18432 | 33.80102 | 50 ft | 16 kts | 165° |
| 2026-05-06 10:57 | 27.18328 | 33.80132 | 52 ft | 16 kts | 166° |
| 2026-05-06 10:57 | 27.18194 | 33.80172 | 53 ft | 23 kts | 165° |
| 2026-05-06 10:57 | 27.18042 | 33.80216 | 54 ft | 21 kts | 165° |
| 2026-05-06 10:58 | 27.17903 | 33.80257 | 54 ft | 20 kts | 165° |
| 2026-05-06 10:58 | 27.17772 | 33.80296 | 54 ft | 19 kts | 165° |
| 2026-05-06 10:58 | 27.17654 | 33.80330 | 55 ft | 17 kts | 165° |
| 2026-05-06 10:58 | 27.17542 | 33.80364 | 51 ft | 17 kts | 165° |
| 2026-05-06 10:59 | 27.17434 | 33.80363 | 51 ft | 16 kts | 233° |
| 2026-05-06 10:59 | 27.17406 | 33.80244 | 52 ft | 15 kts | 256° |
| 2026-05-06 10:59 | 27.17377 | 33.80120 | 55 ft | 19 kts | 256° |
| 2026-05-06 10:59 | 27.17337 | 33.79958 | 55 ft | 24 kts | 256° |
| 2026-05-06 11:00 | 27.17294 | 33.79785 | 69 ft | 22 kts | 255° |
| 2026-05-06 11:00 | 27.17256 | 33.79619 | 95 ft | 20 kts | 256° |
| 2026-05-06 11:00 | 27.17201 | 33.79503 | 103 ft | 14 kts | 190° |
| 2026-05-06 11:00 | 27.17099 | 33.79529 | 105 ft | 18 kts | 165° |
| 2026-05-06 11:01 | 27.17012 | 33.79555 | 105 ft | 21 kts | 165° |
| 2026-05-06 11:01 | 27.16834 | 33.79608 | 106 ft | 20 kts | 165° |
| 2026-05-06 11:01 | 27.16746 | 33.79634 | 106 ft | 19 kts | 165° |
| 2026-05-06 11:01 | 27.16626 | 33.79669 | 108 ft | 17 kts | 165° |
| 2026-05-06 11:02 | 27.16522 | 33.79700 | 108 ft | 15 kts | 165° |
| 2026-05-06 11:02 | 27.16429 | 33.79727 | 110 ft | 13 kts | 166° |
| 2026-05-06 11:02 | 27.16374 | 33.79695 | 113 ft | 9 kts | 255° |
| 2026-05-06 11:02 | 27.16358 | 33.79622 | 113 ft | 9 kts | 256° |
| 2026-05-06 11:03 | 27.16359 | 33.79556 | 113 ft | 8 kts | 308° |
| 2026-05-06 11:03 | 27.16424 | 33.79531 | 113 ft | 17 kts | 345° |
| 2026-05-06 11:03 | 27.16731 | 33.79441 | 112 ft | 81 kts | 345° |
| 2026-05-06 11:03 | 27.17493 | 33.79216 | 100 ft | 143 kts | 345° |
| 2026-05-06 11:04 | 27.18537 | 33.78903 | 558 ft | 156 kts | 346° |
| 2026-05-06 11:04 | 27.19587 | 33.78597 | 1366 ft | 155 kts | 346° |
| 2026-05-06 11:04 | 27.20661 | 33.78408 | 2109 ft | 161 kts | 349° |
| 2026-05-06 11:04 | 27.21850 | 33.78240 | 2523 ft | 185 kts | 351° |
| 2026-05-06 11:05 | 27.23214 | 33.78053 | 3052 ft | 209 kts | 349° |
| 2026-05-06 11:05 | 27.24742 | 33.77849 | 3555 ft | 233 kts | 349° |
| 2026-05-06 11:05 | 27.26418 | 33.77625 | 4216 ft | 249 kts | 349° |
| 2026-05-06 11:05 | 27.28168 | 33.77393 | 5132 ft | 257 kts | 348° |
| 2026-05-06 11:06 | 27.29967 | 33.77154 | 6071 ft | 263 kts | 349° |
| 2026-05-06 11:06 | 27.31824 | 33.76909 | 6981 ft | 268 kts | 348° |
| 2026-05-06 11:06 | 27.33672 | 33.76663 | 7841 ft | 273 kts | 348° |
| 2026-05-06 11:06 | 27.35578 | 33.76406 | 8715 ft | 278 kts | 348° |
| 2026-05-06 11:07 | 27.37545 | 33.76140 | 9589 ft | 284 kts | 348° |
| 2026-05-06 11:07 | 27.39530 | 33.75874 | 10321 ft | 294 kts | 348° |
| 2026-05-06 11:07 | 27.41645 | 33.75583 | 10622 ft | 318 kts | 348° |
| 2026-05-06 11:07 | 27.43909 | 33.75271 | 11011 ft | 335 kts | 348° |
| 2026-05-06 11:08 | 27.46252 | 33.74959 | 11703 ft | 342 kts | 348° |
| 2026-05-06 11:08 | 27.48631 | 33.74647 | 12454 ft | 347 kts | 348° |
| 2026-05-06 11:08 | 27.51048 | 33.74333 | 13214 ft | 351 kts | 348° |
| 2026-05-06 11:08 | 27.53486 | 33.74009 | 13944 ft | 356 kts | 348° |
| 2026-05-06 11:09 | 27.55957 | 33.73675 | 14598 ft | 359 kts | 347° |
| 2026-05-06 11:09 | 27.58454 | 33.73338 | 15261 ft | 363 kts | 347° |
| 2026-05-06 11:09 | 27.60978 | 33.72988 | 15941 ft | 366 kts | 347° |
| 2026-05-06 11:09 | 27.63510 | 33.72607 | 16608 ft | 369 kts | 346° |
| 2026-05-06 11:10 | 27.66071 | 33.72204 | 17277 ft | 373 kts | 346° |
| 2026-05-06 11:10 | 27.68648 | 33.71791 | 17945 ft | 376 kts | 345° |
| 2026-05-06 11:10 | 27.71248 | 33.71375 | 18564 ft | 379 kts | 345° |
| 2026-05-06 11:10 | 27.73873 | 33.70959 | 19144 ft | 383 kts | 345° |
| 2026-05-06 11:11 | 27.76523 | 33.70543 | 19735 ft | 386 kts | 345° |
| 2026-05-06 11:11 | 27.79188 | 33.70126 | 20339 ft | 389 kts | 345° |
| 2026-05-06 11:11 | 27.81880 | 33.69705 | 20935 ft | 392 kts | 345° |
| 2026-05-06 11:11 | 27.84591 | 33.69282 | 21534 ft | 395 kts | 345° |
| 2026-05-06 11:12 | 27.87325 | 33.68856 | 22116 ft | 398 kts | 345° |
| 2026-05-06 11:12 | 27.90081 | 33.68431 | 22691 ft | 401 kts | 345° |
| 2026-05-06 11:12 | 27.92857 | 33.68005 | 23241 ft | 404 kts | 345° |
| 2026-05-06 11:12 | 27.95658 | 33.67572 | 23751 ft | 407 kts | 345° |
| 2026-05-06 11:13 | 27.98474 | 33.67134 | 24187 ft | 410 kts | 345° |
| 2026-05-06 11:13 | 28.01312 | 33.66688 | 24617 ft | 413 kts | 345° |
| 2026-05-06 11:13 | 28.04170 | 33.66235 | 25040 ft | 416 kts | 345° |
| 2026-05-06 11:13 | 28.07045 | 33.65779 | 25446 ft | 419 kts | 345° |
| 2026-05-06 11:14 | 28.09944 | 33.65324 | 25841 ft | 421 kts | 345° |
| 2026-05-06 11:14 | 28.12855 | 33.64871 | 26248 ft | 424 kts | 345° |
| 2026-05-06 11:14 | 28.15791 | 33.64413 | 26639 ft | 427 kts | 345° |
| 2026-05-06 11:14 | 28.18740 | 33.63948 | 27035 ft | 429 kts | 345° |
| 2026-05-06 11:15 | 28.21729 | 33.63604 | 27422 ft | 438 kts | 351° |
| 2026-05-06 11:15 | 28.24853 | 33.63758 | 27813 ft | 447 kts | 357° |
| 2026-05-06 11:15 | 28.27958 | 33.64047 | 28190 ft | 449 kts | 357° |
| 2026-05-06 11:15 | 28.31086 | 33.64335 | 28567 ft | 452 kts | 357° |
| 2026-05-06 11:16 | 28.34225 | 33.64620 | 28929 ft | 454 kts | 357° |
| 2026-05-06 11:16 | 28.37384 | 33.64904 | 29280 ft | 456 kts | 357° |
| 2026-05-06 11:16 | 28.40558 | 33.65190 | 29620 ft | 459 kts | 357° |
| 2026-05-06 11:16 | 28.43751 | 33.65476 | 29949 ft | 461 kts | 357° |
| 2026-05-06 11:17 | 28.46936 | 33.65532 | 30240 ft | 454 kts | 348° |
| 2026-05-06 11:17 | 28.50024 | 33.64971 | 30493 ft | 446 kts | 338° |
| 2026-05-06 11:17 | 28.52929 | 33.63834 | 30755 ft | 438 kts | 328° |
| 2026-05-06 11:17 | 28.55573 | 33.62184 | 31019 ft | 431 kts | 319° |
| 2026-05-06 11:18 | 28.57906 | 33.60086 | 31254 ft | 424 kts | 310° |
| 2026-05-06 11:18 | 28.59871 | 33.57627 | 31555 ft | 417 kts | 302° |
| 2026-05-06 11:18 | 28.61690 | 33.55059 | 31862 ft | 417 kts | 303° |
| 2026-05-06 11:18 | 28.63514 | 33.52496 | 32005 ft | 414 kts | 303° |
| 2026-05-06 11:19 | 28.65306 | 33.49986 | 32027 ft | 404 kts | 303° |
| 2026-05-06 11:19 | 28.68808 | 33.45064 | 32029 ft | 398 kts | 303° |
| 2026-05-06 11:20 | 28.72277 | 33.40150 | 32030 ft | 398 kts | 303° |
| 2026-05-06 11:20 | 28.75746 | 33.35249 | 32028 ft | 397 kts | 303° |
| 2026-05-06 11:21 | 28.79211 | 33.30347 | 32030 ft | 396 kts | 303° |
| 2026-05-06 11:21 | 28.82663 | 33.25456 | 32028 ft | 396 kts | 303° |
| 2026-05-06 11:22 | 28.86117 | 33.20553 | 32029 ft | 396 kts | 303° |
| 2026-05-06 11:22 | 28.89564 | 33.15647 | 32027 ft | 396 kts | 303° |
| 2026-05-06 11:23 | 28.93016 | 33.10740 | 32030 ft | 396 kts | 303° |
| 2026-05-06 11:23 | 28.96484 | 33.05796 | 32031 ft | 397 kts | 303° |
| 2026-05-06 11:24 | 28.99935 | 33.00874 | 32036 ft | 397 kts | 303° |
| 2026-05-06 11:24 | 29.03382 | 32.95949 | 32041 ft | 397 kts | 303° |
| 2026-05-06 11:25 | 29.06836 | 32.91018 | 32046 ft | 397 kts | 303° |
| 2026-05-06 11:25 | 29.10287 | 32.86088 | 32048 ft | 397 kts | 303° |
| 2026-05-06 11:26 | 29.13727 | 32.81158 | 32050 ft | 397 kts | 303° |
| 2026-05-06 11:26 | 29.17169 | 32.76222 | 32053 ft | 397 kts | 303° |
| 2026-05-06 11:27 | 29.20610 | 32.71290 | 32055 ft | 396 kts | 303° |
| 2026-05-06 11:27 | 29.24041 | 32.66352 | 32057 ft | 396 kts | 303° |
| 2026-05-06 11:28 | 29.27474 | 32.61406 | 32061 ft | 397 kts | 303° |
| 2026-05-06 11:28 | 29.30906 | 32.56446 | 31921 ft | 398 kts | 303° |
| 2026-05-06 11:28 | 29.32620 | 32.53952 | 31670 ft | 398 kts | 303° |
| 2026-05-06 11:29 | 29.34318 | 32.51477 | 31182 ft | 393 kts | 303° |
| 2026-05-06 11:29 | 29.36000 | 32.49023 | 30627 ft | 389 kts | 304° |
| 2026-05-06 11:29 | 29.37693 | 32.46553 | 30047 ft | 388 kts | 304° |
| 2026-05-06 11:29 | 29.39332 | 32.44163 | 29453 ft | 385 kts | 304° |
| 2026-05-06 11:30 | 29.41000 | 32.41728 | 28907 ft | 381 kts | 304° |
| 2026-05-06 11:30 | 29.42630 | 32.39344 | 28365 ft | 378 kts | 304° |
| 2026-05-06 11:30 | 29.44244 | 32.36982 | 27841 ft | 375 kts | 305° |
| 2026-05-06 11:30 | 29.45853 | 32.34631 | 27304 ft | 373 kts | 305° |
| 2026-05-06 11:31 | 29.47453 | 32.32293 | 26785 ft | 371 kts | 305° |
| 2026-05-06 11:31 | 29.49045 | 32.29967 | 26263 ft | 370 kts | 305° |
| 2026-05-06 11:31 | 29.50628 | 32.27650 | 25755 ft | 368 kts | 305° |
| 2026-05-06 11:31 | 29.52206 | 32.25339 | 25247 ft | 367 kts | 305° |
| 2026-05-06 11:32 | 29.53780 | 32.23033 | 24752 ft | 366 kts | 305° |
| 2026-05-06 11:32 | 29.55344 | 32.20736 | 24265 ft | 364 kts | 306° |
| 2026-05-06 11:32 | 29.56900 | 32.18450 | 23802 ft | 362 kts | 306° |
| 2026-05-06 11:32 | 29.58450 | 32.16175 | 23278 ft | 360 kts | 306° |
| 2026-05-06 11:33 | 29.59488 | 32.14650 | 22977 ft | 358 kts | 306° |
| 2026-05-06 11:33 | 29.61503 | 32.11688 | 22389 ft | 353 kts | 306° |
| 2026-05-06 11:33 | 29.62524 | 32.10187 | 22097 ft | 352 kts | 306° |
| 2026-05-06 11:33 | 29.64024 | 32.07979 | 21663 ft | 349 kts | 306° |
| 2026-05-06 11:34 | 29.65510 | 32.05781 | 21155 ft | 348 kts | 306° |
| 2026-05-06 11:34 | 29.67024 | 32.03536 | 20253 ft | 360 kts | 306° |
| 2026-05-06 11:34 | 29.68564 | 32.01254 | 19647 ft | 362 kts | 306° |
| 2026-05-06 11:34 | 29.70108 | 31.98976 | 19156 ft | 360 kts | 306° |
| 2026-05-06 11:35 | 29.71648 | 31.96713 | 18697 ft | 358 kts | 306° |
| 2026-05-06 11:35 | 29.73177 | 31.94462 | 18216 ft | 356 kts | 306° |
| 2026-05-06 11:35 | 29.74693 | 31.92226 | 17706 ft | 353 kts | 306° |
| 2026-05-06 11:35 | 29.76092 | 31.89925 | 17237 ft | 348 kts | 295° |
| 2026-05-06 11:36 | 29.76900 | 31.87326 | 16765 ft | 344 kts | 285° |
| 2026-05-06 11:36 | 29.77556 | 31.84679 | 16289 ft | 343 kts | 285° |
| 2026-05-06 11:36 | 29.78196 | 31.82049 | 15832 ft | 340 kts | 285° |
| 2026-05-06 11:36 | 29.78830 | 31.79435 | 15382 ft | 338 kts | 285° |
| 2026-05-06 11:37 | 29.79456 | 31.76834 | 14925 ft | 336 kts | 285° |
| 2026-05-06 11:37 | 29.80076 | 31.74247 | 14501 ft | 334 kts | 285° |
| 2026-05-06 11:37 | 29.80691 | 31.71675 | 14080 ft | 332 kts | 285° |
| 2026-05-06 11:37 | 29.81297 | 31.69126 | 13609 ft | 330 kts | 285° |
| 2026-05-06 11:38 | 29.81897 | 31.66585 | 13126 ft | 328 kts | 285° |
| 2026-05-06 11:38 | 29.82490 | 31.64050 | 12627 ft | 326 kts | 285° |
| 2026-05-06 11:38 | 29.83073 | 31.61539 | 12145 ft | 324 kts | 285° |
| 2026-05-06 11:38 | 29.83652 | 31.59039 | 11666 ft | 322 kts | 285° |
| 2026-05-06 11:39 | 29.84223 | 31.56548 | 11192 ft | 321 kts | 285° |
| 2026-05-06 11:39 | 29.84790 | 31.54068 | 10729 ft | 319 kts | 285° |
| 2026-05-06 11:39 | 29.85346 | 31.51612 | 10424 ft | 311 kts | 285° |
| 2026-05-06 11:39 | 29.85871 | 31.49284 | 10269 ft | 290 kts | 285° |
| 2026-05-06 11:40 | 29.86374 | 31.47045 | 9890 ft | 281 kts | 285° |
| 2026-05-06 11:40 | 29.86852 | 31.44905 | 9357 ft | 278 kts | 285° |
| 2026-05-06 11:40 | 29.87333 | 31.42729 | 8744 ft | 276 kts | 285° |
| 2026-05-06 11:40 | 29.87801 | 31.40598 | 8166 ft | 273 kts | 285° |
| 2026-05-06 11:41 | 29.88258 | 31.38483 | 7601 ft | 271 kts | 285° |
| 2026-05-06 11:41 | 29.88705 | 31.36383 | 7024 ft | 269 kts | 285° |
| 2026-05-06 11:41 | 29.89143 | 31.34296 | 6490 ft | 266 kts | 285° |
| 2026-05-06 11:41 | 29.89571 | 31.32230 | 5877 ft | 264 kts | 285° |
| 2026-05-06 11:42 | 29.89995 | 31.30173 | 5338 ft | 265 kts | 285° |
| 2026-05-06 11:42 | 29.90491 | 31.28144 | 5008 ft | 261 kts | 297° |
| 2026-05-06 11:42 | 29.91528 | 31.26492 | 4803 ft | 250 kts | 313° |
| 2026-05-06 11:42 | 29.92721 | 31.25108 | 4677 ft | 238 kts | 321° |
| 2026-05-06 11:43 | 29.94013 | 31.23960 | 4533 ft | 229 kts | 327° |
| 2026-05-06 11:43 | 29.95448 | 31.23332 | 4348 ft | 221 kts | 354° |
| 2026-05-06 11:43 | 29.96959 | 31.23490 | 4080 ft | 218 kts | 17° |
| 2026-05-06 11:44 | 29.99321 | 31.25672 | 3545 ft | 223 kts | 47° |
| 2026-05-06 11:44 | 30.00321 | 31.27006 | 3259 ft | 215 kts | 47° |
| 2026-05-06 11:44 | 30.01272 | 31.28271 | 2975 ft | 200 kts | 47° |
| 2026-05-06 11:44 | 30.02167 | 31.29459 | 2750 ft | 191 kts | 47° |
| 2026-05-06 11:45 | 30.03006 | 31.30572 | 2480 ft | 177 kts | 48° |
| 2026-05-06 11:45 | 30.03794 | 31.31617 | 2251 ft | 169 kts | 47° |
| 2026-05-06 11:45 | 30.04528 | 31.32592 | 2054 ft | 156 kts | 47° |
| 2026-05-06 11:45 | 30.05223 | 31.33515 | 1830 ft | 147 kts | 46° |
| 2026-05-06 11:46 | 30.05876 | 31.34382 | 1648 ft | 141 kts | 47° |
| 2026-05-06 11:46 | 30.06506 | 31.35218 | 1476 ft | 136 kts | 46° |
| 2026-05-06 11:46 | 30.07118 | 31.36032 | 1277 ft | 132 kts | 46° |
| 2026-05-06 11:46 | 30.07716 | 31.36830 | 1077 ft | 131 kts | 46° |
| 2026-05-06 11:47 | 30.08311 | 31.37625 | 921 ft | 132 kts | 46° |
| 2026-05-06 11:47 | 30.08916 | 31.38419 | 749 ft | 131 kts | 46° |
| 2026-05-06 11:47 | 30.09507 | 31.39208 | 582 ft | 131 kts | 46° |
| 2026-05-06 11:47 | 30.10108 | 31.40006 | 411 ft | 129 kts | 47° |
| 2026-05-06 11:48 | 30.10648 | 31.40724 | 373 ft | 98 kts | 49° |
| 2026-05-06 11:48 | 30.10981 | 31.41172 | 374 ft | 49 kts | 49° |
| 2026-05-06 11:48 | 30.11124 | 31.41363 | 374 ft | 26 kts | 49° |
| 2026-05-06 11:48 | 30.11256 | 31.41517 | 373 ft | 27 kts | 36° |
| 2026-05-06 11:49 | 30.11428 | 31.41607 | 375 ft | 27 kts | 19° |
| 2026-05-06 11:49 | 30.11567 | 31.41564 | 375 ft | 23 kts | 263° |
| 2026-05-06 11:49 | 30.11484 | 31.41447 | 375 ft | 16 kts | 227° |
| 2026-05-06 11:49 | 30.11392 | 31.41321 | 375 ft | 23 kts | 229° |
| 2026-05-06 11:50 | 30.11282 | 31.41175 | 375 ft | 25 kts | 229° |
| 2026-05-06 11:50 | 30.11163 | 31.41017 | 375 ft | 27 kts | 229° |
| 2026-05-06 11:50 | 30.11035 | 31.40845 | 375 ft | 29 kts | 230° |
| 2026-05-06 11:50 | 30.10895 | 31.40659 | 374 ft | 32 kts | 229° |
| 2026-05-06 11:51 | 30.10756 | 31.40476 | 374 ft | 28 kts | 229° |
| 2026-05-06 11:51 | 30.10683 | 31.40336 | 374 ft | 16 kts | 288° |
| 2026-05-06 11:51 | 30.10683 | 31.40220 | 374 ft | 18 kts | 225° |
| 2026-05-06 11:51 | 30.10589 | 31.40097 | 374 ft | 20 kts | 229° |
| 2026-05-06 11:52 | 30.10497 | 31.39977 | 374 ft | 20 kts | 229° |
| 2026-05-06 11:52 | 30.10521 | 31.39862 | 374 ft | 18 kts | 333° |
| 2026-05-06 11:52 | 30.10645 | 31.39817 | 374 ft | 18 kts | 324° |
| 2026-05-06 11:52 | 30.10637 | 31.39678 | 374 ft | 19 kts | 256° |
| 2026-05-06 11:53 | 30.10603 | 31.39529 | 374 ft | 20 kts | 255° |
| 2026-05-06 11:53 | 30.10567 | 31.39371 | 374 ft | 21 kts | 255° |
| 2026-05-06 11:53 | 30.10531 | 31.39215 | 374 ft | 16 kts | 255° |
| 2026-05-06 11:53 | 30.10580 | 31.39132 | 374 ft | 12 kts | 346° |
| 2026-05-06 11:54 | 30.10672 | 31.39106 | 374 ft | 15 kts | 346° |
| 2026-05-06 11:54 | 30.10743 | 31.39094 | 374 ft | 7 kts | 28° |
| 2026-05-06 11:54 | 30.10758 | 31.39145 | 374 ft | 5 kts | 75° |
| 2026-05-06 11:54 | 30.10764 | 31.39169 | 374 ft | 1 kts | 75° |
| 2026-05-06 11:55 | 30.10766 | 31.39177 | 374 ft | 1 kts | 75° |
| 2026-05-06 11:55 | 30.10766 | 31.39179 | 374 ft | 0 kts | 75° |